createdAt,value
2022-08-25T00:02:12.217Z,1.80
2022-08-25T00:04:38.766Z,1.90
2022-08-25T00:07:07.362Z,1.75
2022-08-25T00:09:35.046Z,1.80
2022-08-25T00:12:03.434Z,2.15
2022-08-25T00:14:33.822Z,2.05
2022-08-25T00:17:01.309Z,2.45
2022-08-25T00:19:32.239Z,1.88
2022-08-25T00:21:59.370Z,2.03
2022-08-25T00:24:26.206Z,2.38
2022-08-25T00:26:56.464Z,2.20
2022-08-25T00:29:26.019Z,2.28
2022-08-25T00:31:53.257Z,2.05
2022-08-25T00:34:25.543Z,2.03
2022-08-25T00:36:52.914Z,1.95
2022-08-25T00:39:21.213Z,2.30
2022-08-25T00:41:49.633Z,2.15
2022-08-25T00:44:19.247Z,2.20
2022-08-25T00:46:49.201Z,2.60
2022-08-25T00:49:25.399Z,2.20
2022-08-25T00:52:09.402Z,2.00
2022-08-25T00:54:47.352Z,2.10
2022-08-25T00:57:18.700Z,2.00
2022-08-25T00:59:49.174Z,1.98
2022-08-25T01:02:17.040Z,1.92
2022-08-25T01:04:49.172Z,2.05
2022-08-25T01:07:18.601Z,2.10
2022-08-25T01:09:47.765Z,2.13
2022-08-25T01:12:14.819Z,2.08
2022-08-25T01:14:41.920Z,2.00
2022-08-25T01:17:09.746Z,2.00
2022-08-25T01:19:36.139Z,1.75
2022-08-25T01:22:02.687Z,2.13
2022-08-25T01:24:50.699Z,1.95
2022-08-25T01:27:17.200Z,2.15
2022-08-25T01:29:43.738Z,2.08
2022-08-25T01:32:13.174Z,1.90
2022-08-25T01:34:42.744Z,2.03
2022-08-25T01:37:13.247Z,2.05
2022-08-25T01:39:41.267Z,2.10
2022-08-25T01:42:09.076Z,2.33
2022-08-25T01:44:39.288Z,2.40
2022-08-25T01:47:07.204Z,2.10
2022-08-25T01:49:34.659Z,2.40
2022-08-25T01:52:25.348Z,2.08
2022-08-25T01:54:51.903Z,2.10
2022-08-25T01:57:18.496Z,2.10
2022-08-25T01:59:45.292Z,2.05
2022-08-25T02:02:12.022Z,1.90
2022-08-25T02:04:39.410Z,2.40
2022-08-25T02:07:08.952Z,2.33
2022-08-25T02:09:37.695Z,2.15
2022-08-25T02:12:04.710Z,1.98
2022-08-25T02:14:31.321Z,2.53
2022-08-25T02:16:57.753Z,2.30
2022-08-25T02:19:25.810Z,2.38
2022-08-25T02:21:53.965Z,2.03
2022-08-25T02:24:20.986Z,3.03
2022-08-25T02:26:47.818Z,2.25
2022-08-25T02:29:14.592Z,2.13
2022-08-25T02:31:41.063Z,2.15
2022-08-25T02:34:08.781Z,2.42
2022-08-25T02:36:36.327Z,2.67
2022-08-25T02:39:04.628Z,2.78
2022-08-25T02:41:33.514Z,2.60
2022-08-25T02:44:01.550Z,2.13
2022-08-25T02:46:28.327Z,2.13
2022-08-25T02:48:55.217Z,2.30
2022-08-25T02:51:23.650Z,2.20
2022-08-25T02:53:50.596Z,2.20
2022-08-25T02:56:19.395Z,2.05
2022-08-25T02:58:46.462Z,2.20
2022-08-25T03:01:14.783Z,2.35
2022-08-25T03:03:45.660Z,2.53
2022-08-25T03:06:14.657Z,2.28
2022-08-25T03:08:42.261Z,2.30
2022-08-25T03:11:09.163Z,2.50
2022-08-25T03:13:35.947Z,2.25
2022-08-25T03:16:04.388Z,2.30
2022-08-25T03:18:31.319Z,2.55
2022-08-25T03:20:59.116Z,2.40
2022-08-25T03:23:25.662Z,2.30
2022-08-25T03:26:13.399Z,2.22
2022-08-25T03:28:40.051Z,2.50
2022-08-25T03:31:06.498Z,2.28
2022-08-25T03:33:33.032Z,1.98
2022-08-25T03:35:59.695Z,2.35
2022-08-25T03:38:27.130Z,2.40
2022-08-25T03:40:54.365Z,2.60
2022-08-25T03:43:21.357Z,2.50
2022-08-25T03:45:48.103Z,2.45
2022-08-25T03:48:16.139Z,2.40
2022-08-25T03:50:50.763Z,2.40
2022-08-25T03:53:19.607Z,2.20
2022-08-25T03:55:46.227Z,2.50
2022-08-25T03:58:12.605Z,2.20
2022-08-25T04:00:39.591Z,2.40
2022-08-25T04:03:06.409Z,2.38
2022-08-25T04:05:33.186Z,2.60
2022-08-25T04:08:01.791Z,2.50
2022-08-25T04:10:29.025Z,2.55
2022-08-25T04:12:56.079Z,2.75
2022-08-25T04:15:22.634Z,2.78
2022-08-25T04:17:51.134Z,2.55
2022-08-25T04:20:19.010Z,2.50
2022-08-25T04:22:45.935Z,2.60
2022-08-25T04:25:12.717Z,2.47
2022-08-25T04:27:39.221Z,3.37
2022-08-25T04:30:06.773Z,2.60
2022-08-25T04:32:35.163Z,3.15
2022-08-25T04:35:01.681Z,2.50
2022-08-25T04:37:28.154Z,2.70
2022-08-25T04:39:54.745Z,2.47
2022-08-25T04:42:21.700Z,2.77
2022-08-25T04:44:48.673Z,3.20
2022-08-25T04:47:15.022Z,2.87
2022-08-25T04:49:41.730Z,2.63
2022-08-25T04:52:13.244Z,2.50
2022-08-25T04:54:41.581Z,2.80
2022-08-25T04:57:07.992Z,2.75
2022-08-25T04:59:34.573Z,2.80
2022-08-25T05:02:03.231Z,3.38
2022-08-25T05:04:31.331Z,3.07
2022-08-25T05:06:58.693Z,3.10
2022-08-25T05:09:26.297Z,3.43
2022-08-25T05:11:53.717Z,3.03
2022-08-25T05:14:25.722Z,3.03
2022-08-25T05:16:53.472Z,3.23
2022-08-25T05:19:19.955Z,3.00
2022-08-25T05:21:46.382Z,3.17
2022-08-25T05:24:12.854Z,3.40
2022-08-25T05:26:39.661Z,3.70
2022-08-25T05:29:06.380Z,3.17
2022-08-25T05:31:34.911Z,3.53
2022-08-25T05:34:07.873Z,4.67
2022-08-25T05:36:35.078Z,3.97
2022-08-25T05:39:02.009Z,3.57
2022-08-25T05:41:30.402Z,4.10
2022-08-25T05:43:57.363Z,3.58
2022-08-25T05:46:24.226Z,3.97
2022-08-25T05:48:51.057Z,3.80
2022-08-25T05:51:17.914Z,3.63
2022-08-25T05:53:46.107Z,3.70
2022-08-25T05:56:16.418Z,3.13
2022-08-25T05:58:43.366Z,3.83
2022-08-25T06:01:37.469Z,3.58
2022-08-25T06:04:05.102Z,3.40
2022-08-25T06:06:32.112Z,3.60
2022-08-25T06:08:58.550Z,3.78
2022-08-25T06:11:25.115Z,3.40
2022-08-25T06:13:51.630Z,3.17
2022-08-25T06:16:18.453Z,4.00
2022-08-25T06:18:45.058Z,3.70
2022-08-25T06:21:14.509Z,3.58
2022-08-25T06:23:41.411Z,3.65
2022-08-25T06:26:18.144Z,3.63
2022-08-25T06:28:48.086Z,3.95
2022-08-25T06:31:14.720Z,3.58
2022-08-25T06:33:41.347Z,4.00
2022-08-25T06:36:08.644Z,3.47
2022-08-25T06:38:35.231Z,4.10
2022-08-25T06:41:04.301Z,3.63
2022-08-25T06:43:33.053Z,3.53
2022-08-25T06:46:19.065Z,3.63
2022-08-25T06:48:45.688Z,3.35
2022-08-25T06:51:14.760Z,3.78
2022-08-25T06:53:42.940Z,3.75
2022-08-25T06:56:10.184Z,3.38
2022-08-25T06:58:37.266Z,4.15
2022-08-25T07:01:20.033Z,4.05
2022-08-25T07:03:48.001Z,3.67
2022-08-25T07:06:16.551Z,3.53
2022-08-25T07:08:45.731Z,4.50
2022-08-25T07:11:16.281Z,4.03
2022-08-25T07:13:45.012Z,4.05
2022-08-25T07:16:11.663Z,3.97
2022-08-25T07:18:38.201Z,4.00
2022-08-25T07:21:05.096Z,4.30
2022-08-25T07:23:35.990Z,4.57
2022-08-25T07:29:14.917Z,4.10
2022-08-25T07:31:41.628Z,4.15
2022-08-25T07:34:27.319Z,4.10
2022-08-25T07:36:56.492Z,4.10
2022-08-25T07:39:24.231Z,4.13
2022-08-25T07:41:52.556Z,4.30
2022-08-25T07:44:20.055Z,3.85
2022-08-25T07:46:46.499Z,4.32
2022-08-25T07:49:16.483Z,3.75
2022-08-25T07:52:04.436Z,4.10
2022-08-25T07:54:34.114Z,3.92
2022-08-25T07:57:01.453Z,3.85
2022-08-25T07:59:27.898Z,4.00
2022-08-25T08:01:54.436Z,4.15
2022-08-25T08:04:20.874Z,3.85
2022-08-25T08:06:47.277Z,4.18
2022-08-25T08:09:13.727Z,3.85
2022-08-25T08:11:53.985Z,3.78
2022-08-25T08:14:21.281Z,4.15
2022-08-25T08:16:47.906Z,4.18
2022-08-25T08:19:14.340Z,3.53
2022-08-25T08:21:42.200Z,3.67
2022-08-25T08:24:24.913Z,3.97
2022-08-25T08:26:58.892Z,3.65
2022-08-25T08:29:26.151Z,3.47
2022-08-25T08:31:53.250Z,3.50
2022-08-25T08:34:19.781Z,3.50
2022-08-25T08:36:51.525Z,3.50
2022-08-25T08:39:18.101Z,3.85
2022-08-25T08:42:11.508Z,3.60
2022-08-25T08:45:21.163Z,4.10
2022-08-25T08:48:03.136Z,4.07
2022-08-25T08:50:52.733Z,3.55
2022-08-25T08:53:23.732Z,3.53
2022-08-25T08:55:56.395Z,3.00
2022-08-25T08:58:26.321Z,3.35
2022-08-25T09:00:55.967Z,3.30
2022-08-25T09:03:35.433Z,4.03
2022-08-25T09:06:12.996Z,3.17
2022-08-25T09:08:44.858Z,3.10
2022-08-25T09:11:37.191Z,3.35
2022-08-25T09:14:32.385Z,3.45
2022-08-25T09:17:45.369Z,3.30
2022-08-25T09:20:48.732Z,3.08
2022-08-25T09:23:33.669Z,3.78
2022-08-25T09:26:16.025Z,3.28
2022-08-25T09:28:57.454Z,3.50
2022-08-25T09:31:30.036Z,3.67
2022-08-25T09:34:00.188Z,3.45
2022-08-25T09:36:27.146Z,3.30
2022-08-25T09:38:53.556Z,3.50
2022-08-25T09:41:51.557Z,3.63
2022-08-25T09:44:19.769Z,3.03
2022-08-25T09:47:23.608Z,3.28
2022-08-25T09:50:01.542Z,3.10
2022-08-25T09:52:37.336Z,3.67
2022-08-25T09:55:14.694Z,3.42
2022-08-25T09:57:47.852Z,3.10
2022-08-25T10:00:14.837Z,3.22
2022-08-25T10:02:43.882Z,3.20
2022-08-25T10:05:26.228Z,3.10
2022-08-25T10:08:01.972Z,3.00
2022-08-25T10:10:33.647Z,3.20
2022-08-25T10:13:03.500Z,2.90
2022-08-25T10:15:37.488Z,3.20
2022-08-25T10:18:25.710Z,3.10
2022-08-25T10:21:04.526Z,2.50
2022-08-25T10:23:37.841Z,2.80
2022-08-25T10:26:13.185Z,3.10
2022-08-25T10:28:52.219Z,2.90
2022-08-25T10:31:22.194Z,3.53
2022-08-25T10:34:09.675Z,3.08
2022-08-25T10:36:51.377Z,3.15
2022-08-25T10:39:57.981Z,3.42
2022-08-25T10:42:31.651Z,3.42
2022-08-25T10:45:45.883Z,3.40
2022-08-25T10:48:55.973Z,4.60
2022-08-25T10:51:35.366Z,3.15
2022-08-25T10:54:09.839Z,3.33
2022-08-25T10:56:41.616Z,3.33
2022-08-25T10:59:18.980Z,3.50
2022-08-25T11:01:57.639Z,3.47
2022-08-25T11:04:54.693Z,3.10
2022-08-25T11:07:34.614Z,3.63
2022-08-25T11:10:11.384Z,3.10
2022-08-25T11:13:00.079Z,2.78
2022-08-25T11:15:35.644Z,2.80
2022-08-25T11:18:14.432Z,3.10
2022-08-25T11:21:05.299Z,2.95
2022-08-25T11:23:46.191Z,3.17
2022-08-25T11:26:17.286Z,3.60
2022-08-25T11:29:01.197Z,3.20
2022-08-25T11:31:28.630Z,3.50
2022-08-25T11:33:56.888Z,3.53
2022-08-25T11:36:49.733Z,3.40
2022-08-25T11:49:58.710Z,3.20
2022-08-25T11:52:34.886Z,3.00
2022-08-25T11:55:26.178Z,3.25
2022-08-25T11:58:23.490Z,3.30
2022-08-25T12:00:53.064Z,3.22
2022-08-25T12:03:31.757Z,3.10
2022-08-25T12:06:18.970Z,3.30
2022-08-25T12:08:51.484Z,3.63
2022-08-25T12:11:39.925Z,3.67
2022-08-25T12:14:14.222Z,4.13
2022-08-25T12:16:45.777Z,3.70
2022-08-25T12:19:34.270Z,3.55
2022-08-25T12:22:04.270Z,3.65
2022-08-25T12:24:47.943Z,3.47
2022-08-25T12:27:45.086Z,3.78
2022-08-25T12:30:18.476Z,3.47
2022-08-25T12:32:56.363Z,3.50
2022-08-25T12:35:50.367Z,3.42
2022-08-25T12:38:45.441Z,3.60
2022-08-25T12:41:19.080Z,3.50
2022-08-25T12:43:48.845Z,3.40
2022-08-25T12:46:21.301Z,3.42
2022-08-25T12:49:15.361Z,3.10
2022-08-25T12:51:50.199Z,3.28
2022-08-25T12:54:25.758Z,3.47
2022-08-25T12:56:59.000Z,3.28
2022-08-25T12:59:31.965Z,4.05
2022-08-25T13:02:36.389Z,3.63
2022-08-25T13:05:34.927Z,3.20
2022-08-25T13:08:26.910Z,3.17
2022-08-25T13:11:11.478Z,3.08
2022-08-25T13:13:55.184Z,3.20
2022-08-25T13:16:29.415Z,3.40
2022-08-25T13:18:59.388Z,3.70
2022-08-25T13:21:41.706Z,3.30
2022-08-25T13:24:40.404Z,3.08
2022-08-25T13:27:18.009Z,3.75
2022-08-25T13:29:56.374Z,3.30
2022-08-25T13:32:32.158Z,3.45
2022-08-25T13:35:17.604Z,3.17
2022-08-25T13:37:46.905Z,3.47
2022-08-25T13:40:19.497Z,3.60
2022-08-25T13:42:54.321Z,3.53
2022-08-25T13:45:27.754Z,3.30
2022-08-25T13:47:56.311Z,3.65
2022-08-25T13:50:26.318Z,3.30
2022-08-25T13:52:54.973Z,3.05
2022-08-25T13:55:51.687Z,3.30
2022-08-25T13:58:45.705Z,3.20
2022-08-25T14:01:22.964Z,3.50
2022-08-25T14:04:50.503Z,3.35
2022-08-25T14:07:21.087Z,3.10
2022-08-25T14:10:05.077Z,3.13
2022-08-25T14:12:34.856Z,3.10
2022-08-25T14:15:16.681Z,3.10
2022-08-25T14:20:27.172Z,3.00
2022-08-25T14:22:58.026Z,3.17
2022-08-25T14:25:28.870Z,3.38
2022-08-25T14:28:08.090Z,3.17
2022-08-25T14:30:39.320Z,3.00
2022-08-25T14:33:06.953Z,2.95
2022-08-25T14:35:34.270Z,2.95
2022-08-25T14:38:08.462Z,3.00
2022-08-25T14:40:35.608Z,3.28
2022-08-25T14:43:02.278Z,2.92
2022-08-25T14:45:29.040Z,2.95
2022-08-25T14:48:02.086Z,2.90
2022-08-25T14:50:29.998Z,3.08
2022-08-25T14:52:59.662Z,2.70
2022-08-25T14:55:31.178Z,3.15
2022-08-25T14:57:58.598Z,2.70
2022-08-25T15:00:25.322Z,2.78
2022-08-25T15:02:52.925Z,3.40
2022-08-25T15:05:29.371Z,3.05
2022-08-25T15:08:15.713Z,3.20
2022-08-25T15:10:43.414Z,2.95
2022-08-25T15:13:10.223Z,3.42
2022-08-25T15:15:40.165Z,2.95
2022-08-25T15:18:20.446Z,2.60
2022-08-25T15:20:46.928Z,3.20
2022-08-25T15:23:16.590Z,2.92
2022-08-25T15:25:45.259Z,3.00
2022-08-25T15:28:12.814Z,2.80
2022-08-25T15:30:45.715Z,2.92
2022-08-25T15:33:12.863Z,2.67
2022-08-25T15:35:39.693Z,3.03
2022-08-25T15:38:06.181Z,2.72
2022-08-25T15:40:34.400Z,2.95
2022-08-25T15:43:01.511Z,2.72
2022-08-25T15:45:28.073Z,2.78
2022-08-25T15:47:54.476Z,2.80
2022-08-25T15:50:25.768Z,2.92
2022-08-25T15:52:52.519Z,2.88
2022-08-25T15:55:20.003Z,2.95
2022-08-25T15:57:47.727Z,3.20
2022-08-25T16:00:17.413Z,3.08
2022-08-25T16:02:45.497Z,3.10
2022-08-25T16:05:13.543Z,2.90
2022-08-25T16:07:40.666Z,2.67
2022-08-25T16:10:07.678Z,2.50
2022-08-25T16:12:34.050Z,2.42
2022-08-25T16:15:00.581Z,2.30
2022-08-25T16:17:26.949Z,2.85
2022-08-25T16:19:53.570Z,2.65
2022-08-25T16:22:20.078Z,2.60
2022-08-25T16:24:46.508Z,2.63
2022-08-25T16:27:14.138Z,2.65
2022-08-25T16:29:43.710Z,2.50
2022-08-25T16:32:13.463Z,2.35
2022-08-25T16:34:40.853Z,2.65
2022-08-25T16:37:08.326Z,2.55
2022-08-25T16:39:35.748Z,2.40
2022-08-25T16:42:02.105Z,3.80
2022-08-25T16:44:28.537Z,2.78
2022-08-25T16:46:55.347Z,2.70
2022-08-25T16:49:24.165Z,2.67
2022-08-25T16:51:57.727Z,2.65
2022-08-25T16:54:43.814Z,2.70
2022-08-25T16:57:10.554Z,2.38
2022-08-25T16:59:37.037Z,2.50
2022-08-25T17:02:03.795Z,2.72
2022-08-25T17:04:32.270Z,3.03
2022-08-25T17:06:59.421Z,3.08
2022-08-25T17:09:25.777Z,2.85
2022-08-25T17:11:56.518Z,3.05
2022-08-25T17:14:23.016Z,2.72
2022-08-25T17:16:51.130Z,2.67
2022-08-25T17:19:17.952Z,2.85
2022-08-25T17:21:46.143Z,2.65
2022-08-25T17:24:14.365Z,3.25
2022-08-25T17:26:42.422Z,2.63
2022-08-25T17:29:09.549Z,2.67
2022-08-25T17:31:39.571Z,2.75
2022-08-25T17:34:08.253Z,2.90
2022-08-25T17:36:35.397Z,2.90
2022-08-25T17:39:03.568Z,3.10
2022-08-25T17:41:30.307Z,2.88
2022-08-25T17:43:56.954Z,2.67
2022-08-25T17:46:23.884Z,2.83
2022-08-25T17:48:51.215Z,2.67
2022-08-25T17:51:18.160Z,3.10
2022-08-25T17:53:45.035Z,2.85
2022-08-25T17:56:16.564Z,2.95
2022-08-25T17:58:44.567Z,2.83
2022-08-25T18:01:20.366Z,3.03
2022-08-25T18:03:49.481Z,3.10
2022-08-25T18:06:16.470Z,2.75
2022-08-25T18:08:43.953Z,2.88
2022-08-25T18:11:11.130Z,3.47
2022-08-25T18:13:38.781Z,3.15
2022-08-25T18:16:05.674Z,3.40
2022-08-25T18:18:34.250Z,3.30
2022-08-25T18:21:02.384Z,3.33
2022-08-25T18:23:29.714Z,3.50
2022-08-25T18:26:01.002Z,3.60
2022-08-25T18:28:28.708Z,3.40
2022-08-25T18:30:55.498Z,3.95
2022-08-25T18:33:23.417Z,3.70
2022-08-25T18:35:49.843Z,3.40
2022-08-25T18:38:36.141Z,3.72
2022-08-25T18:41:06.374Z,3.40
2022-08-25T18:43:33.891Z,3.70
2022-08-25T18:46:04.195Z,3.50
2022-08-25T18:48:31.557Z,3.88
2022-08-25T18:50:59.322Z,3.67
2022-08-25T18:53:30.104Z,4.13
2022-08-25T18:55:57.999Z,3.80
2022-08-25T18:58:26.870Z,3.72
2022-08-25T19:00:53.261Z,3.80
2022-08-25T19:03:23.175Z,3.90
2022-08-25T19:05:51.819Z,3.90
2022-08-25T19:08:24.510Z,4.00
2022-08-25T19:10:53.586Z,4.07
2022-08-25T19:13:22.518Z,4.40
2022-08-25T19:15:51.652Z,4.10
2022-08-25T19:18:26.125Z,4.13
2022-08-25T19:20:55.997Z,4.13
2022-08-25T19:23:22.457Z,4.35
2022-08-25T19:25:48.993Z,3.60
2022-08-25T19:28:16.184Z,4.43
2022-08-25T19:30:50.600Z,4.40
2022-08-25T19:33:31.313Z,4.25
2022-08-25T19:36:08.778Z,4.10
2022-08-25T19:38:36.903Z,4.25
2022-08-25T19:41:10.758Z,4.35
2022-08-25T19:43:55.772Z,4.43
2022-08-25T19:46:32.843Z,4.45
2022-08-25T19:49:12.039Z,4.53
2022-08-25T19:51:44.339Z,4.97
2022-08-25T19:54:13.562Z,4.13
2022-08-25T19:56:43.562Z,4.60
2022-08-25T19:59:21.922Z,4.15
2022-08-25T20:01:50.200Z,4.38
2022-08-25T20:04:17.053Z,4.40
2022-08-25T20:06:43.713Z,4.20
2022-08-25T20:09:20.789Z,4.28
2022-08-25T20:12:02.385Z,4.38
2022-08-25T20:14:29.122Z,4.68
2022-08-25T20:16:55.571Z,4.47
2022-08-25T20:19:21.925Z,4.93
2022-08-25T20:21:48.461Z,4.50
2022-08-25T20:24:33.532Z,4.80
2022-08-25T20:27:00.406Z,4.15
2022-08-25T20:29:27.527Z,4.35
2022-08-25T20:31:53.961Z,5.38
2022-08-25T20:34:20.455Z,5.40
2022-08-25T20:36:50.335Z,5.13
2022-08-25T20:39:17.792Z,5.60
2022-08-25T20:41:48.323Z,4.93
2022-08-25T20:44:15.885Z,4.40
2022-08-25T20:46:42.288Z,4.15
2022-08-25T20:49:09.070Z,4.70
2022-08-25T20:51:35.698Z,4.75
2022-08-25T20:54:02.164Z,5.10
2022-08-25T20:56:30.490Z,4.22
2022-08-25T20:58:57.006Z,4.82
2022-08-25T21:01:37.521Z,4.43
2022-08-25T21:04:06.604Z,4.70
2022-08-25T21:06:35.337Z,4.38
2022-08-25T21:09:05.447Z,5.10
2022-08-25T21:11:40.032Z,4.30
2022-08-25T21:14:07.242Z,4.70
2022-08-25T21:16:37.892Z,4.43
2022-08-25T21:19:06.091Z,4.88
2022-08-25T21:21:38.246Z,5.28
2022-08-25T21:24:09.709Z,4.95
2022-08-25T21:26:37.607Z,4.60
2022-08-25T21:29:15.056Z,4.90
2022-08-25T21:31:41.878Z,4.70
2022-08-25T21:34:10.165Z,5.07
2022-08-25T21:36:36.606Z,4.68
2022-08-25T21:39:03.574Z,5.30
2022-08-25T21:41:32.166Z,5.10
2022-08-25T21:43:59.595Z,4.45
2022-08-25T21:46:29.156Z,4.60
2022-08-25T21:48:58.263Z,5.00
2022-08-25T21:51:29.161Z,4.80
2022-08-25T21:54:08.891Z,4.45
2022-08-25T21:56:53.420Z,4.90
2022-08-25T21:59:23.952Z,5.00
2022-08-25T22:01:54.402Z,5.05
2022-08-25T22:04:20.901Z,5.25
2022-08-25T22:06:47.848Z,5.03
2022-08-25T22:09:14.425Z,4.55
2022-08-25T22:11:42.873Z,5.07
2022-08-25T22:14:10.365Z,4.95
2022-08-25T22:16:37.973Z,4.68
2022-08-25T22:19:07.438Z,4.57
2022-08-25T22:21:34.411Z,4.90
2022-08-25T22:24:01.548Z,4.95
2022-08-25T22:26:31.033Z,5.60
2022-08-25T22:28:59.491Z,5.05
2022-08-25T22:31:27.425Z,4.57
2022-08-25T22:33:55.858Z,4.93
2022-08-25T22:36:30.918Z,4.80
2022-08-25T22:38:57.754Z,5.20
2022-08-25T22:41:26.869Z,5.18
2022-08-25T22:43:55.461Z,5.47
2022-08-25T22:46:22.802Z,4.78
2022-08-25T22:48:50.337Z,5.05
2022-08-25T22:51:22.142Z,4.78
2022-08-25T22:53:49.452Z,4.40
2022-08-25T22:56:18.325Z,4.90
2022-08-25T22:58:52.158Z,4.72
2022-08-25T23:01:20.206Z,4.72
2022-08-25T23:03:47.699Z,4.78
2022-08-25T23:06:24.421Z,4.78
2022-08-25T23:08:53.829Z,5.03
2022-08-25T23:11:21.738Z,4.90
2022-08-25T23:13:48.301Z,5.20
2022-08-25T23:16:15.733Z,4.90
2022-08-25T23:18:43.878Z,5.50
2022-08-25T23:21:38.105Z,4.50
2022-08-25T23:24:08.722Z,5.28
2022-08-25T23:26:37.134Z,4.70
2022-08-25T23:29:18.707Z,4.80
2022-08-25T23:31:47.022Z,5.13
2022-08-25T23:34:15.529Z,5.22
2022-08-25T23:36:43.195Z,4.97
2022-08-25T23:39:10.719Z,5.20
2022-08-25T23:41:37.245Z,5.00
2022-08-25T23:44:05.588Z,5.10
2022-08-25T23:46:35.032Z,5.53
2022-08-25T23:49:02.893Z,5.10
2022-08-25T23:51:33.495Z,5.25
2022-08-25T23:54:05.830Z,5.10
2022-08-25T23:56:33.346Z,5.38
2022-08-25T23:59:03.304Z,4.95
